createdAt,value
2023-05-24T00:01:25.719Z,46.22
2023-05-24T00:03:59.553Z,46.31
2023-05-24T00:06:28.500Z,46.40
2023-05-24T00:08:57.539Z,46.31
2023-05-24T00:11:27.592Z,46.41
2023-05-24T00:13:58.929Z,46.42
2023-05-24T00:16:28.137Z,46.47
2023-05-24T00:19:01.645Z,46.40
2023-05-24T00:21:31.640Z,46.59
2023-05-24T00:24:00.450Z,46.57
2023-05-24T00:26:29.079Z,46.53
2023-05-24T00:28:58.232Z,46.60
2023-05-24T00:31:34.393Z,46.65
2023-05-24T00:34:05.389Z,46.74
2023-05-24T00:36:39.041Z,46.61
2023-05-24T00:39:09.211Z,46.80
2023-05-24T00:41:37.803Z,46.85
2023-05-24T00:44:06.490Z,46.63
2023-05-24T00:46:36.421Z,46.98
2023-05-24T00:49:05.645Z,46.76
2023-05-24T00:51:41.248Z,46.85
2023-05-24T00:54:15.567Z,46.80
2023-05-24T00:56:45.125Z,46.81
2023-05-24T00:59:14.748Z,46.93
2023-05-24T01:01:50.809Z,46.90
2023-05-24T01:04:22.537Z,46.75
2023-05-24T01:07:05.157Z,46.87
2023-05-24T01:09:50.949Z,46.78
2023-05-24T01:12:46.673Z,46.88
2023-05-24T01:15:25.481Z,47.02
2023-05-24T01:18:11.406Z,46.88
2023-05-24T01:20:41.682Z,46.96
2023-05-24T01:23:39.549Z,47.08
2023-05-24T01:26:20.828Z,46.94
2023-05-24T01:28:50.864Z,47.19
2023-05-24T01:31:24.954Z,46.88
2023-05-24T01:33:53.974Z,47.00
2023-05-24T01:36:26.378Z,47.21
2023-05-24T01:38:55.615Z,47.15
2023-05-24T01:41:41.249Z,47.16
2023-05-24T01:44:19.237Z,47.13
2023-05-24T01:46:50.135Z,47.13
2023-05-24T01:49:26.115Z,47.22
2023-05-24T01:52:00.054Z,47.31
2023-05-24T01:54:33.142Z,47.37
2023-05-24T01:57:07.620Z,47.36
2023-05-24T01:59:39.750Z,47.35
2023-05-24T02:02:09.142Z,47.30
2023-05-24T02:04:39.120Z,47.15
2023-05-24T02:07:11.203Z,47.36
2023-05-24T02:09:39.893Z,47.47
2023-05-24T02:12:11.478Z,47.34
2023-05-24T02:14:44.549Z,47.32
2023-05-24T02:17:18.864Z,47.38
2023-05-24T02:19:47.654Z,47.30
2023-05-24T02:22:16.606Z,47.55
2023-05-24T02:24:49.409Z,47.52
2023-05-24T02:27:20.856Z,47.41
2023-05-24T02:29:49.659Z,47.71
2023-05-24T02:32:19.702Z,47.62
2023-05-24T02:34:48.570Z,47.44
2023-05-24T02:37:18.352Z,47.70
2023-05-24T02:39:47.181Z,47.83
2023-05-24T02:42:19.825Z,47.60
2023-05-24T02:44:51.786Z,47.60
2023-05-24T02:47:21.115Z,47.80
2023-05-24T02:49:51.215Z,47.67
2023-05-24T02:52:22.784Z,47.60
2023-05-24T02:54:54.458Z,47.66
2023-05-24T02:57:23.752Z,47.65
2023-05-24T02:59:52.806Z,47.74
2023-05-24T03:02:21.847Z,47.82
2023-05-24T03:04:53.398Z,47.83
2023-05-24T03:07:22.460Z,47.74
2023-05-24T03:09:51.361Z,47.77
2023-05-24T03:12:20.785Z,47.71
2023-05-24T03:14:50.059Z,47.98
2023-05-24T03:17:21.503Z,48.00
2023-05-24T03:19:52.088Z,47.94
2023-05-24T03:22:20.880Z,48.07
2023-05-24T03:24:49.640Z,48.10
2023-05-24T03:27:21.557Z,48.02
2023-05-24T03:29:50.736Z,47.92
2023-05-24T03:32:21.006Z,47.95
2023-05-24T03:34:49.518Z,48.28
2023-05-24T03:37:19.068Z,48.05
2023-05-24T03:39:48.343Z,48.19
2023-05-24T03:42:58.963Z,48.42
2023-05-24T03:46:01.300Z,48.22
2023-05-24T03:48:30.510Z,48.41
2023-05-24T03:51:00.914Z,48.41
2023-05-24T03:53:29.678Z,48.45
2023-05-24T03:55:58.338Z,48.28
2023-05-24T03:58:27.032Z,48.52
2023-05-24T04:01:00.638Z,48.58
2023-05-24T04:03:33.503Z,48.49
2023-05-24T04:06:02.105Z,48.77
2023-05-24T04:08:31.426Z,48.78
2023-05-24T04:10:59.922Z,48.72
2023-05-24T04:13:28.991Z,48.88
2023-05-24T04:16:00.879Z,48.85
2023-05-24T04:18:30.073Z,48.81
2023-05-24T04:20:58.952Z,49.06
2023-05-24T04:23:27.645Z,48.97
2023-05-24T04:25:56.477Z,48.89
2023-05-24T04:28:25.653Z,49.06
2023-05-24T04:31:00.190Z,48.92
2023-05-24T04:33:28.868Z,49.06
2023-05-24T04:36:00.593Z,49.06
2023-05-24T04:38:32.274Z,48.99
2023-05-24T04:41:00.834Z,49.08
2023-05-24T04:43:30.949Z,49.01
2023-05-24T04:45:59.659Z,48.96
2023-05-24T04:48:29.365Z,49.00
2023-05-24T04:50:58.486Z,49.06
2023-05-24T04:53:27.283Z,49.54
2023-05-24T04:55:56.049Z,50.70
2023-05-24T04:58:25.187Z,51.10
2023-05-24T05:01:01.557Z,49.77
2023-05-24T05:03:30.271Z,48.57
2023-05-24T05:05:59.219Z,48.82
2023-05-24T05:08:27.917Z,48.15
2023-05-24T05:10:57.145Z,47.89
2023-05-24T05:13:25.959Z,46.75
2023-05-24T05:15:59.874Z,46.11
2023-05-24T05:18:28.428Z,46.79
2023-05-24T05:20:57.931Z,46.75
2023-05-24T05:23:27.031Z,46.50
2023-05-24T05:25:58.757Z,45.67
2023-05-24T05:28:27.766Z,45.24
2023-05-24T05:31:00.645Z,44.73
2023-05-24T05:33:31.959Z,44.38
2023-05-24T05:36:00.693Z,44.72
2023-05-24T05:38:30.638Z,45.35
2023-05-24T05:40:59.208Z,45.30
2023-05-24T05:43:28.712Z,45.19
2023-05-24T05:46:01.911Z,44.90
2023-05-24T05:48:30.742Z,44.38
2023-05-24T05:50:59.365Z,43.80
2023-05-24T05:53:28.218Z,43.38
2023-05-24T05:55:58.250Z,42.90
2023-05-24T05:58:27.019Z,42.58
2023-05-24T06:01:03.308Z,42.26
2023-05-24T06:03:33.413Z,41.61
2023-05-24T06:06:02.434Z,40.79
2023-05-24T06:08:34.418Z,40.08
2023-05-24T06:11:03.159Z,39.92
2023-05-24T06:13:32.520Z,40.27
2023-05-24T06:16:01.363Z,40.47
2023-05-24T06:18:32.113Z,40.71
2023-05-24T06:21:00.714Z,40.77
2023-05-24T06:23:29.406Z,40.77
2023-05-24T06:25:58.414Z,40.89
2023-05-24T06:28:27.668Z,40.91
2023-05-24T06:31:00.528Z,41.07
2023-05-24T06:33:31.124Z,41.13
2023-05-24T06:35:59.674Z,41.30
2023-05-24T06:38:28.759Z,41.39
2023-05-24T06:40:57.748Z,41.63
2023-05-24T06:43:27.563Z,41.38
2023-05-24T06:46:03.337Z,41.50
2023-05-24T06:48:32.071Z,41.47
2023-05-24T06:51:01.054Z,41.52
2023-05-24T06:53:30.179Z,41.45
2023-05-24T06:55:59.253Z,41.37
2023-05-24T06:58:28.126Z,41.58
2023-05-24T07:01:00.087Z,41.46
2023-05-24T07:03:30.393Z,41.58
2023-05-24T07:05:59.226Z,41.61
2023-05-24T07:08:30.180Z,41.62
2023-05-24T07:10:58.992Z,41.65
2023-05-24T07:13:27.859Z,41.65
2023-05-24T07:16:04.466Z,41.61
2023-05-24T07:18:33.117Z,41.66
2023-05-24T07:21:02.137Z,41.59
2023-05-24T07:23:31.882Z,41.54
2023-05-24T07:26:00.791Z,41.72
2023-05-24T07:28:29.815Z,41.98
2023-05-24T07:31:02.130Z,41.78
2023-05-24T07:33:33.427Z,41.72
2023-05-24T07:36:02.975Z,41.79
2023-05-24T07:38:31.754Z,41.63
2023-05-24T07:41:02.811Z,41.80
2023-05-24T07:43:31.787Z,41.99
2023-05-24T07:46:03.196Z,42.02
2023-05-24T07:48:32.152Z,42.05
2023-05-24T07:51:00.855Z,41.89
2023-05-24T07:53:29.859Z,41.78
2023-05-24T07:55:58.441Z,41.79
2023-05-24T07:58:27.297Z,41.90
2023-05-24T08:01:02.471Z,41.96
2023-05-24T08:03:31.915Z,42.13
2023-05-24T08:06:01.453Z,41.99
2023-05-24T08:08:30.120Z,42.07
2023-05-24T08:10:58.817Z,42.01
2023-05-24T08:13:27.849Z,41.83
2023-05-24T08:16:02.381Z,41.78
2023-05-24T08:18:31.080Z,41.84
2023-05-24T08:20:59.639Z,41.88
2023-05-24T08:23:29.412Z,41.90
2023-05-24T08:25:58.360Z,41.85
2023-05-24T08:28:27.792Z,41.77
2023-05-24T08:31:02.021Z,41.88
2023-05-24T08:33:30.884Z,41.89
2023-05-24T08:35:59.634Z,41.82
2023-05-24T08:38:29.488Z,41.79
2023-05-24T08:40:58.174Z,41.76
2023-05-24T08:43:30.106Z,41.78
2023-05-24T08:46:04.094Z,41.67
2023-05-24T08:48:41.938Z,41.37
2023-05-24T08:51:09.869Z,41.39
2023-05-24T08:53:41.572Z,41.28
2023-05-24T08:56:10.734Z,41.46
2023-05-24T08:58:39.558Z,41.48
2023-05-24T09:01:08.899Z,41.49
2023-05-24T09:03:40.321Z,41.52
2023-05-24T09:06:11.663Z,41.51
2023-05-24T09:08:43.862Z,41.72
2023-05-24T09:11:16.374Z,41.70
2023-05-24T09:13:47.902Z,41.79
2023-05-24T09:16:17.007Z,41.90
2023-05-24T09:18:46.058Z,41.88
2023-05-24T09:21:14.749Z,41.97
2023-05-24T09:23:44.685Z,42.23
2023-05-24T09:26:13.973Z,42.27
2023-05-24T09:28:43.705Z,42.30
2023-05-24T09:31:13.264Z,42.39
2023-05-24T09:33:42.271Z,42.49
2023-05-24T09:36:12.156Z,42.53
2023-05-24T09:38:41.712Z,42.52
2023-05-24T09:41:10.803Z,42.55
2023-05-24T09:43:49.307Z,42.66
2023-05-24T09:46:22.580Z,42.70
2023-05-24T09:48:58.745Z,42.64
2023-05-24T09:51:27.451Z,42.79
2023-05-24T09:54:00.725Z,42.59
2023-05-24T09:56:30.466Z,42.60
2023-05-24T09:59:05.130Z,42.62
2023-05-24T10:01:35.369Z,42.43
2023-05-24T10:04:09.293Z,42.60
2023-05-24T10:06:39.556Z,42.62
2023-05-24T10:09:11.017Z,42.70
2023-05-24T10:11:41.231Z,42.54
2023-05-24T10:14:10.973Z,42.42
2023-05-24T10:16:40.246Z,42.37
2023-05-24T10:19:09.554Z,42.53
2023-05-24T10:21:41.514Z,42.64
2023-05-24T10:24:12.598Z,42.57
2023-05-24T10:26:42.377Z,42.64
2023-05-24T10:29:24.967Z,42.58
2023-05-24T10:31:54.843Z,42.53
2023-05-24T10:34:25.142Z,42.45
2023-05-24T10:36:54.143Z,42.45
2023-05-24T10:39:25.104Z,42.63
2023-05-24T10:41:56.870Z,42.53
2023-05-24T10:44:30.175Z,42.49
2023-05-24T10:47:12.456Z,42.63
2023-05-24T10:49:50.746Z,42.59
2023-05-24T10:52:20.989Z,42.61
2023-05-24T10:55:08.977Z,42.74
2023-05-24T10:57:37.773Z,42.68
2023-05-24T11:03:04.259Z,42.98
2023-05-24T11:05:36.341Z,42.84
2023-05-24T11:08:08.897Z,42.55
2023-05-24T11:10:38.273Z,42.44
2023-05-24T11:13:08.993Z,42.35
2023-05-24T11:15:37.940Z,42.33
2023-05-24T11:18:16.800Z,42.21
2023-05-24T11:20:46.374Z,41.96
2023-05-24T11:23:17.317Z,41.76
2023-05-24T11:25:47.606Z,41.86
2023-05-24T11:28:16.986Z,41.80
2023-05-24T11:30:47.381Z,41.78
2023-05-24T11:33:18.107Z,41.80
2023-05-24T11:35:49.969Z,41.66
2023-05-24T11:38:22.197Z,41.29
2023-05-24T11:40:53.148Z,41.22
2023-05-24T11:43:23.182Z,41.19
2023-05-24T11:45:52.961Z,41.06
2023-05-24T11:48:24.830Z,40.87
2023-05-24T11:50:55.657Z,40.51
2023-05-24T11:53:24.803Z,40.47
2023-05-24T11:55:57.234Z,40.14
2023-05-24T11:58:34.517Z,40.19
2023-05-24T12:01:03.555Z,39.93
2023-05-24T12:03:33.316Z,39.91
2023-05-24T12:06:02.339Z,39.75
2023-05-24T12:08:31.703Z,39.63
2023-05-24T12:11:02.308Z,39.78
2023-05-24T12:13:30.945Z,39.55
2023-05-24T12:16:02.664Z,39.52
2023-05-24T12:18:31.635Z,39.51
2023-05-24T12:21:00.290Z,39.30
2023-05-24T12:23:31.531Z,39.20
2023-05-24T12:26:00.585Z,38.71
2023-05-24T12:28:35.612Z,38.48
2023-05-24T12:31:06.685Z,38.70
2023-05-24T12:33:35.635Z,38.92
2023-05-24T12:36:04.932Z,38.65
2023-05-24T12:38:33.415Z,38.33
2023-05-24T12:43:33.673Z,38.78
2023-05-24T12:46:02.820Z,38.65
2023-05-24T12:48:31.431Z,38.31
2023-05-24T12:51:00.169Z,38.64
2023-05-24T12:53:29.083Z,38.65
2023-05-24T12:55:59.822Z,38.55
2023-05-24T12:58:28.615Z,38.44
2023-05-24T13:01:00.357Z,38.62
2023-05-24T13:03:28.967Z,38.77
2023-05-24T13:05:59.362Z,39.18
2023-05-24T13:08:29.000Z,38.97
2023-05-24T13:10:57.573Z,39.23
2023-05-24T13:13:28.025Z,39.43
2023-05-24T13:16:05.092Z,39.52
2023-05-24T13:18:33.157Z,39.09
2023-05-24T13:21:04.862Z,39.05
2023-05-24T13:23:35.693Z,39.12
2023-05-24T13:26:06.462Z,39.15
2023-05-24T13:28:35.907Z,39.26
2023-05-24T13:31:05.759Z,39.44
2023-05-24T13:33:34.712Z,39.63
2023-05-24T13:36:03.312Z,39.71
2023-05-24T13:38:31.809Z,40.10
2023-05-24T13:41:00.720Z,40.42
2023-05-24T13:43:29.447Z,40.68
2023-05-24T13:45:59.861Z,40.82
2023-05-24T13:48:28.752Z,40.87
2023-05-24T13:50:57.560Z,40.81
2023-05-24T13:53:27.642Z,40.67
2023-05-24T13:55:57.186Z,40.56
2023-05-24T13:58:26.290Z,40.54
2023-05-24T14:01:03.096Z,40.61
2023-05-24T14:03:31.718Z,40.84
2023-05-24T14:06:01.080Z,40.96
2023-05-24T14:08:29.722Z,41.13
2023-05-24T14:10:58.404Z,41.14
2023-05-24T14:14:16.665Z,41.33
2023-05-24T14:16:16.125Z,41.53
2023-05-24T14:18:45.205Z,41.41
2023-05-24T14:21:13.858Z,41.50
2023-05-24T14:23:42.447Z,41.59
2023-05-24T14:26:11.153Z,41.79
2023-05-24T14:28:39.812Z,41.88
2023-05-24T14:31:08.411Z,41.88
2023-05-24T14:33:37.956Z,41.95
2023-05-24T14:36:08.125Z,41.97
2023-05-24T14:38:36.655Z,42.08
2023-05-24T14:41:06.121Z,42.15
2023-05-24T14:43:36.049Z,41.85
2023-05-24T14:46:05.753Z,41.76
2023-05-24T14:48:34.824Z,41.81
2023-05-24T14:51:03.532Z,41.78
2023-05-24T14:53:32.242Z,42.04
2023-05-24T14:56:03.281Z,42.09
2023-05-24T14:58:31.870Z,42.42
2023-05-24T15:01:02.284Z,42.48
2023-05-24T15:03:31.206Z,42.77
2023-05-24T15:06:01.293Z,42.81
2023-05-24T15:08:30.234Z,43.19
2023-05-24T15:11:00.968Z,43.39
2023-05-24T15:13:30.622Z,43.65
2023-05-24T15:16:01.156Z,43.80
2023-05-24T15:18:31.535Z,43.87
2023-05-24T15:21:04.569Z,44.16
2023-05-24T15:23:33.317Z,44.40
2023-05-24T15:26:02.146Z,44.94
2023-05-24T15:28:30.685Z,45.41
2023-05-24T15:31:03.197Z,45.72
2023-05-24T15:33:32.504Z,45.99
2023-05-24T15:36:01.266Z,46.22
2023-05-24T15:38:29.797Z,46.54
2023-05-24T15:40:59.392Z,46.78
2023-05-24T15:43:29.444Z,47.17
2023-05-24T15:46:01.376Z,47.45
2023-05-24T15:48:30.353Z,47.84
2023-05-24T15:51:53.816Z,48.01
2023-05-24T15:53:48.941Z,48.14
2023-05-24T15:56:17.614Z,48.24
2023-05-24T15:58:46.212Z,48.47
2023-05-24T16:01:16.316Z,48.74
2023-05-24T16:03:45.290Z,48.77
2023-05-24T16:06:14.107Z,48.78
2023-05-24T16:08:43.375Z,49.00
2023-05-24T16:11:12.866Z,48.99
2023-05-24T16:13:41.506Z,49.34
2023-05-24T16:16:10.691Z,49.34
2023-05-24T16:18:39.894Z,49.56
2023-05-24T16:21:11.292Z,49.60
2023-05-24T16:23:40.754Z,49.76
2023-05-24T16:26:10.159Z,50.01
2023-05-24T16:28:38.937Z,50.04
2023-05-24T16:31:07.821Z,50.21
2023-05-24T16:33:36.989Z,50.40
2023-05-24T16:36:06.092Z,50.39
2023-05-24T16:38:35.056Z,50.50
2023-05-24T16:41:05.518Z,50.76
2023-05-24T16:43:34.398Z,50.70
2023-05-24T16:46:03.357Z,50.75
2023-05-24T16:48:32.071Z,50.76
2023-05-24T16:51:01.716Z,50.92
2023-05-24T16:53:33.055Z,50.89
2023-05-24T16:56:03.470Z,51.04
2023-05-24T16:58:32.108Z,51.06
2023-05-24T17:01:01.278Z,51.21
2023-05-24T17:03:32.328Z,51.27
2023-05-24T17:06:03.911Z,51.35
2023-05-24T17:08:34.614Z,51.50
2023-05-24T17:11:03.753Z,51.52
2023-05-24T17:13:32.691Z,51.73
2023-05-24T17:16:04.205Z,51.80
2023-05-24T17:18:33.048Z,51.93
2023-05-24T17:21:05.482Z,51.99
2023-05-24T17:23:36.851Z,52.01
2023-05-24T17:26:08.346Z,52.15
2023-05-24T17:28:37.128Z,52.03
2023-05-24T17:31:08.465Z,52.22
2023-05-24T17:33:37.252Z,52.26
2023-05-24T17:36:06.259Z,52.33
2023-05-24T17:38:37.145Z,52.42
2023-05-24T17:41:08.709Z,52.34
2023-05-24T17:43:39.437Z,52.52
2023-05-24T17:46:09.341Z,52.64
2023-05-24T17:48:39.975Z,52.57
2023-05-24T17:51:10.034Z,52.73
2023-05-24T17:53:43.041Z,52.80
2023-05-24T17:56:14.060Z,52.71
2023-05-24T17:58:45.518Z,52.80
2023-05-24T18:01:16.993Z,52.83
2023-05-24T18:03:45.877Z,52.94
2023-05-24T18:06:14.963Z,53.03
2023-05-24T18:08:44.727Z,53.15
2023-05-24T18:11:15.114Z,53.19
2023-05-24T18:13:46.419Z,53.35
2023-05-24T18:16:16.381Z,53.25
2023-05-24T18:18:46.145Z,53.50
2023-05-24T18:21:15.881Z,53.50
2023-05-24T18:23:46.025Z,53.54
2023-05-24T18:26:15.693Z,53.59
2023-05-24T18:28:45.592Z,53.58
2023-05-24T18:31:20.007Z,53.81
2023-05-24T18:33:49.907Z,53.90
2023-05-24T18:36:18.652Z,53.90
2023-05-24T18:38:47.332Z,54.03
2023-05-24T18:41:16.836Z,53.94
2023-05-24T18:43:46.625Z,54.19
2023-05-24T18:46:16.712Z,54.26
2023-05-24T18:48:45.860Z,54.22
2023-05-24T18:51:16.369Z,54.25
2023-05-24T18:53:45.058Z,54.49
2023-05-24T18:56:14.392Z,54.54
2023-05-24T18:58:45.774Z,54.64
2023-05-24T19:01:18.734Z,54.52
2023-05-24T19:03:48.527Z,54.72
2023-05-24T19:06:17.594Z,54.68
2023-05-24T19:08:46.419Z,54.84
2023-05-24T19:11:16.126Z,54.80
2023-05-24T19:13:44.927Z,54.91
2023-05-24T19:16:16.862Z,55.14
2023-05-24T19:18:45.842Z,55.05
2023-05-24T19:21:14.981Z,55.09
2023-05-24T19:23:45.800Z,55.02
2023-05-24T19:26:17.464Z,55.35
2023-05-24T19:28:50.052Z,55.11
2023-05-24T19:31:19.924Z,55.42
2023-05-24T19:34:00.041Z,55.51
2023-05-24T19:36:32.359Z,55.37
2023-05-24T19:39:01.356Z,55.63
2023-05-24T19:41:30.563Z,55.54
2023-05-24T19:44:00.287Z,55.60
2023-05-24T19:46:30.035Z,55.68
2023-05-24T19:48:58.968Z,55.76
2023-05-24T19:51:28.098Z,55.53
2023-05-24T19:53:57.600Z,55.68
2023-05-24T19:56:28.819Z,56.02
2023-05-24T19:59:00.891Z,55.85
2023-05-24T20:01:30.226Z,56.16
2023-05-24T20:03:59.392Z,56.12
2023-05-24T20:06:29.128Z,56.17
2023-05-24T20:08:59.266Z,56.13
2023-05-24T20:11:29.379Z,56.10
2023-05-24T20:13:58.521Z,56.12
2023-05-24T20:16:29.428Z,56.22
2023-05-24T20:18:58.375Z,56.31
2023-05-24T20:21:27.926Z,56.17
2023-05-24T20:23:58.817Z,56.58
2023-05-24T20:26:52.705Z,56.58
2023-05-24T20:29:26.623Z,56.42
2023-05-24T20:31:56.023Z,56.72
2023-05-24T20:34:25.702Z,56.56
2023-05-24T20:36:54.861Z,56.91
2023-05-24T20:39:27.614Z,56.65
2023-05-24T20:41:58.560Z,56.71
2023-05-24T20:44:27.659Z,56.79
2023-05-24T20:47:00.407Z,56.71
2023-05-24T20:49:29.325Z,56.90
2023-05-24T20:52:02.331Z,57.30
2023-05-24T20:54:31.698Z,57.24
2023-05-24T20:57:01.819Z,57.23
2023-05-24T20:59:36.645Z,57.41
2023-05-24T21:02:06.829Z,57.34
2023-05-24T21:04:39.334Z,57.38
2023-05-24T21:07:08.687Z,57.54
2023-05-24T21:09:40.325Z,57.64
2023-05-24T21:12:09.392Z,57.48
2023-05-24T21:14:41.146Z,57.70
2023-05-24T21:17:09.946Z,57.82
2023-05-24T21:19:39.130Z,57.75
2023-05-24T21:22:08.020Z,57.59
2023-05-24T21:24:36.766Z,57.61
2023-05-24T21:27:07.337Z,57.61
2023-05-24T21:29:37.458Z,57.97
2023-05-24T21:32:07.103Z,57.93
2023-05-24T21:34:36.202Z,57.88
2023-05-24T21:37:06.627Z,57.91
2023-05-24T21:39:35.284Z,57.81
2023-05-24T21:42:04.721Z,57.97
2023-05-24T21:44:34.185Z,58.07
2023-05-24T21:47:03.670Z,58.10
2023-05-24T21:49:32.640Z,58.26
2023-05-24T21:52:02.400Z,58.20
2023-05-24T21:54:31.051Z,58.04
2023-05-24T21:57:00.931Z,58.04
2023-05-24T21:59:29.741Z,58.15
2023-05-24T22:01:58.950Z,58.33
2023-05-24T22:04:27.805Z,58.29
2023-05-24T22:06:57.001Z,58.66
2023-05-24T22:09:25.818Z,58.73
2023-05-24T22:11:54.636Z,58.47
2023-05-24T22:14:26.536Z,58.59
2023-05-24T22:16:55.456Z,58.47
2023-05-24T22:19:39.531Z,58.48
2023-05-24T22:22:09.907Z,58.71
2023-05-24T22:24:38.625Z,58.73
2023-05-24T22:27:09.095Z,58.79
2023-05-24T22:29:37.893Z,58.82
2023-05-24T22:32:08.321Z,59.04
2023-05-24T22:34:37.165Z,58.83
2023-05-24T22:37:06.632Z,58.78
2023-05-24T22:39:35.302Z,58.94
2023-05-24T22:42:05.336Z,58.95
2023-05-24T22:44:33.961Z,59.36
2023-05-24T22:47:02.905Z,59.21
2023-05-24T22:49:34.436Z,59.27
2023-05-24T22:52:05.326Z,59.13
2023-05-24T22:54:36.781Z,59.13
2023-05-24T22:57:08.947Z,59.28
2023-05-24T22:59:37.583Z,59.42
2023-05-24T23:02:09.344Z,59.16
2023-05-24T23:04:38.050Z,59.41
2023-05-24T23:07:07.892Z,59.49
2023-05-24T23:09:36.635Z,59.59
2023-05-24T23:12:08.201Z,59.67
2023-05-24T23:14:42.308Z,59.70
2023-05-24T23:17:13.695Z,59.51
2023-05-24T23:19:45.119Z,59.43
2023-05-24T23:22:17.670Z,59.86
2023-05-24T23:24:50.360Z,59.67
2023-05-24T23:27:20.282Z,59.86
2023-05-24T23:29:51.568Z,59.83
2023-05-24T23:32:20.969Z,59.88
2023-05-24T23:34:50.552Z,59.83
2023-05-24T23:37:19.550Z,60.00
2023-05-24T23:39:48.326Z,59.93
2023-05-24T23:42:17.198Z,60.09
2023-05-24T23:44:45.919Z,59.93
2023-05-24T23:47:14.711Z,60.05
2023-05-24T23:49:44.267Z,60.19
2023-05-24T23:52:15.467Z,59.93
2023-05-24T23:54:44.071Z,60.02
2023-05-24T23:57:14.602Z,59.84
2023-05-24T23:59:43.197Z,59.98
